createdAt,value
2023-11-07T21:21:30.520Z,10.14
2023-11-07T21:24:00.962Z,10.13
2023-11-07T21:26:28.961Z,10.08
2023-11-07T21:28:59.263Z,10.13
2023-11-07T21:31:26.873Z,10.05
2023-11-07T21:33:54.868Z,10.05
2023-11-07T21:36:22.762Z,10.12
2023-11-07T21:38:50.333Z,10.18
2023-11-07T21:41:19.643Z,10.23
2023-11-07T21:43:47.331Z,10.36
2023-11-07T21:46:15.358Z,10.31
2023-11-07T21:48:44.994Z,10.25
2023-11-07T21:51:16.194Z,10.16
2023-11-07T21:53:43.886Z,10.01
2023-11-07T21:56:13.910Z,9.96
2023-11-07T21:58:43.116Z,9.89
2023-11-07T22:01:11.139Z,9.86
2023-11-07T22:03:38.807Z,9.78
2023-11-07T22:06:07.081Z,9.84
2023-11-07T22:08:34.739Z,9.90
2023-11-07T22:11:02.304Z,9.95
2023-11-07T22:13:29.864Z,9.96
2023-11-07T22:15:57.423Z,9.92
2023-11-07T22:18:25.286Z,9.86
2023-11-07T22:20:52.832Z,9.85
2023-11-07T22:23:20.283Z,9.86
2023-11-07T22:25:47.967Z,9.83
2023-11-07T22:28:15.435Z,9.69
2023-11-07T22:30:42.954Z,9.59
2023-11-07T22:33:10.609Z,9.52
2023-11-07T22:35:38.134Z,9.50
2023-11-07T22:38:05.573Z,9.58
2023-11-07T22:40:33.059Z,9.70
2023-11-07T22:43:01.367Z,9.83
2023-11-07T22:45:29.056Z,9.94
2023-11-07T22:47:56.647Z,10.01
2023-11-07T22:50:24.925Z,10.10
2023-11-07T22:52:52.365Z,10.16
2023-11-07T22:55:19.730Z,10.18
2023-11-07T22:57:48.444Z,10.21
2023-11-07T23:00:29.115Z,10.19
2023-11-07T23:02:59.908Z,10.16
2023-11-07T23:05:27.508Z,10.17
2023-11-07T23:07:55.846Z,10.18
2023-11-07T23:10:23.631Z,10.18
2023-11-07T23:12:51.132Z,10.19
2023-11-07T23:15:18.619Z,10.23
2023-11-07T23:17:46.427Z,10.27
2023-11-07T23:20:14.014Z,10.31
2023-11-07T23:22:41.641Z,10.33
2023-11-07T23:25:13.122Z,10.34
2023-11-07T23:27:40.683Z,10.31
2023-11-07T23:30:08.973Z,10.29
2023-11-07T23:32:37.294Z,10.25
2023-11-07T23:35:05.981Z,10.26
2023-11-07T23:37:34.548Z,10.28
2023-11-07T23:40:07.680Z,10.27
2023-11-07T23:42:35.069Z,10.26
2023-11-07T23:45:03.417Z,10.23
2023-11-07T23:47:31.814Z,10.21
2023-11-07T23:49:59.306Z,10.21
2023-11-07T23:52:26.758Z,10.23
2023-11-07T23:54:54.127Z,10.23
2023-11-07T23:57:21.637Z,10.24
2023-11-07T23:59:49.352Z,10.25
